createdAt,value
2019-02-25T00:02:29.617Z,100.00
2019-02-25T00:05:36.764Z,100.00
2019-02-25T00:08:44.074Z,100.00
2019-02-25T00:11:51.381Z,100.00
2019-02-25T00:14:58.667Z,100.00
2019-02-25T00:18:06.087Z,100.00
2019-02-25T00:21:13.364Z,100.00
2019-02-25T00:24:21.291Z,100.00
2019-02-25T00:27:28.515Z,100.00
2019-02-25T00:30:35.947Z,100.00
2019-02-25T00:33:43.147Z,100.00
2019-02-25T00:36:50.516Z,100.00
2019-02-25T00:39:57.821Z,100.00
2019-02-25T00:43:05.201Z,100.00
2019-02-25T00:46:12.419Z,100.00
2019-02-25T00:49:19.654Z,100.00
2019-02-25T00:52:26.876Z,100.00
2019-02-25T00:55:34.088Z,100.00
2019-02-25T00:58:41.254Z,100.00
2019-02-25T01:01:48.561Z,100.00
2019-02-25T01:04:55.892Z,100.00
2019-02-25T01:08:03.178Z,100.00
2019-02-25T01:11:10.377Z,100.00
2019-02-25T01:14:17.521Z,100.00
2019-02-25T01:17:24.746Z,100.00
2019-02-25T01:20:31.879Z,100.00
2019-02-25T01:23:49.018Z,100.00
2019-02-25T01:27:05.633Z,100.00
2019-02-25T01:30:22.364Z,100.00
2019-02-25T01:33:38.985Z,100.00
2019-02-25T01:36:46.220Z,100.00
2019-02-25T01:39:53.531Z,100.00
2019-02-25T01:43:10.285Z,100.00
2019-02-25T01:46:17.485Z,100.00
2019-02-25T01:49:24.627Z,100.00
2019-02-25T01:52:31.754Z,100.00
2019-02-25T01:55:38.887Z,100.00
2019-02-25T01:58:46.098Z,100.00
2019-02-25T02:01:53.429Z,100.00
2019-02-25T02:05:00.571Z,100.00
2019-02-25T02:08:08.139Z,100.00
2019-02-25T02:11:24.619Z,100.00
2019-02-25T02:14:31.945Z,100.00
2019-02-25T02:17:39.074Z,100.00
2019-02-25T02:20:55.863Z,100.00
2019-02-25T02:24:12.607Z,100.00
2019-02-25T02:27:18.818Z,100.00
2019-02-25T02:30:26.041Z,100.00
2019-02-25T02:33:33.172Z,100.00
2019-02-25T02:36:40.305Z,100.00
2019-02-25T02:39:47.563Z,100.00
2019-02-25T02:42:56.298Z,100.00
2019-02-25T02:46:44.709Z,100.00
2019-02-25T02:49:50.340Z,100.00
2019-02-25T02:53:06.909Z,100.00
2019-02-25T02:56:14.086Z,100.00
2019-02-25T02:59:31.005Z,100.00
2019-02-25T03:02:38.165Z,100.00
2019-02-25T03:05:45.231Z,100.00
2019-02-25T03:08:52.361Z,100.00
2019-02-25T03:11:59.697Z,100.00
2019-02-25T03:15:09.360Z,100.00
2019-02-25T03:18:16.484Z,100.00
2019-02-25T03:21:23.632Z,100.00
2019-02-25T03:24:31.003Z,100.00
2019-02-25T03:27:38.157Z,100.00
2019-02-25T03:30:45.403Z,100.00
2019-02-25T03:33:52.537Z,100.00
2019-02-25T03:36:59.825Z,100.00
2019-02-25T03:40:07.781Z,100.00
2019-02-25T03:43:14.904Z,100.00
2019-02-25T03:46:21.083Z,100.00
2019-02-25T03:49:37.471Z,100.00
2019-02-25T03:52:44.761Z,100.00
2019-02-25T03:56:01.393Z,100.00
2019-02-25T03:59:18.173Z,100.00
2019-02-25T04:02:25.482Z,100.00
2019-02-25T04:05:31.643Z,100.00
2019-02-25T04:08:38.940Z,100.00
2019-02-25T04:11:44.743Z,100.00
2019-02-25T04:14:52.045Z,100.00
2019-02-25T04:17:59.266Z,100.00
2019-02-25T04:21:06.557Z,100.00
2019-02-25T04:24:13.788Z,100.00
2019-02-25T04:27:21.231Z,100.00
2019-02-25T04:30:28.437Z,100.00
2019-02-25T04:33:35.981Z,100.00
2019-02-25T04:36:52.579Z,100.00
2019-02-25T04:39:59.695Z,100.00
2019-02-25T04:43:07.000Z,100.00
2019-02-25T04:46:14.159Z,100.00
2019-02-25T04:49:21.294Z,100.00
2019-02-25T04:52:28.672Z,100.00
2019-02-25T04:55:45.301Z,100.00
2019-02-25T04:58:52.530Z,100.00
2019-02-25T05:02:09.297Z,100.00
2019-02-25T05:05:25.990Z,100.00
2019-02-25T05:08:33.548Z,100.00
2019-02-25T05:11:49.961Z,100.00
2019-02-25T05:14:57.086Z,100.00
2019-02-25T05:18:04.904Z,100.00
2019-02-25T05:21:21.214Z,100.00
2019-02-25T05:24:37.981Z,100.00
2019-02-25T05:27:54.678Z,100.00
2019-02-25T05:31:01.807Z,100.00
2019-02-25T05:34:18.656Z,100.00
2019-02-25T05:37:25.850Z,100.00
2019-02-25T05:40:32.993Z,100.00
2019-02-25T05:43:40.139Z,100.00
2019-02-25T05:46:47.340Z,100.00
2019-02-25T05:49:55.061Z,100.00
2019-02-25T05:53:11.422Z,100.00
2019-02-25T05:56:18.627Z,100.00
2019-02-25T05:59:26.272Z,100.00
2019-02-25T06:02:42.674Z,100.00
2019-02-25T06:05:49.808Z,100.00
2019-02-25T06:08:57.010Z,100.00
2019-02-25T06:12:04.203Z,100.00
2019-02-25T06:15:12.469Z,100.00
2019-02-25T06:18:19.765Z,100.00
2019-02-25T06:21:27.067Z,100.00
2019-02-25T06:24:34.334Z,100.00
2019-02-25T06:27:41.471Z,100.00
2019-02-25T06:30:48.677Z,100.00
2019-02-25T06:33:55.912Z,100.00
2019-02-25T06:37:03.204Z,100.00
2019-02-25T06:40:11.813Z,100.00
2019-02-25T06:43:19.480Z,100.00
2019-02-25T06:46:26.600Z,100.00
2019-02-25T06:49:33.847Z,100.00
2019-02-25T06:52:41.259Z,100.00
2019-02-25T06:55:57.854Z,100.00
2019-02-25T06:59:05.059Z,100.00
2019-02-25T07:02:12.273Z,100.00
2019-02-25T07:05:40.752Z,100.00
2019-02-25T07:08:58.039Z,100.00
2019-02-25T07:12:15.753Z,100.00
2019-02-25T07:15:47.226Z,100.00
2019-02-25T07:19:11.649Z,100.00
2019-02-25T07:22:40.418Z,100.00
2019-02-25T07:26:14.946Z,100.00
2019-02-25T07:29:29.082Z,100.00
2019-02-25T07:32:43.783Z,100.00
2019-02-25T07:36:04.165Z,100.00
2019-02-25T07:39:28.818Z,100.00
2019-02-25T07:43:15.524Z,100.00
2019-02-25T07:46:38.531Z,100.00
2019-02-25T07:49:56.180Z,100.00
2019-02-25T07:53:32.662Z,100.00
2019-02-25T07:56:57.603Z,100.00
2019-02-25T08:00:36.564Z,100.00
2019-02-25T08:03:59.470Z,100.00
2019-02-25T08:07:26.672Z,100.00
2019-02-25T08:10:59.467Z,100.00
2019-02-25T08:14:47.804Z,100.00
2019-02-25T08:18:37.338Z,100.00
2019-02-25T08:21:52.601Z,100.00
2019-02-25T08:25:32.373Z,100.00
2019-02-25T08:28:55.437Z,100.00
2019-02-25T08:32:09.244Z,100.00
2019-02-25T08:36:19.652Z,100.00
2019-02-25T08:39:52.028Z,100.00
2019-02-25T08:43:29.530Z,100.00
2019-02-25T08:46:45.116Z,100.00
2019-02-25T08:49:55.366Z,100.00
2019-02-25T08:53:02.587Z,100.00
2019-02-25T08:56:09.820Z,100.00
2019-02-25T08:59:17.240Z,100.00
2019-02-25T09:02:24.459Z,100.00
2019-02-25T09:05:31.613Z,100.00
2019-02-25T09:08:38.828Z,100.00
2019-02-25T09:11:55.567Z,100.00
2019-02-25T09:15:12.651Z,100.00
2019-02-25T09:18:29.635Z,100.00
2019-02-25T09:21:36.903Z,100.00
2019-02-25T09:24:53.129Z,100.00
2019-02-25T09:28:00.356Z,100.00
2019-02-25T09:31:07.569Z,100.00
2019-02-25T09:34:24.335Z,100.00
2019-02-25T09:37:41.054Z,100.00
2019-02-25T09:40:57.906Z,100.00
2019-02-25T09:44:14.705Z,100.00
2019-02-25T09:47:21.947Z,100.00
2019-02-25T09:50:29.084Z,100.00
2019-02-25T09:53:36.219Z,100.00
2019-02-25T09:56:43.473Z,100.00
2019-02-25T09:59:50.617Z,100.00
2019-02-25T10:02:57.896Z,100.00
2019-02-25T10:06:05.107Z,100.00
2019-02-25T10:09:10.718Z,100.00
2019-02-25T10:12:18.511Z,100.00
2019-02-25T10:15:25.837Z,100.00
2019-02-25T10:18:32.997Z,100.00
2019-02-25T10:21:40.165Z,100.00
2019-02-25T10:24:47.306Z,100.00
2019-02-25T10:27:54.623Z,100.00
2019-02-25T10:31:01.876Z,100.00
2019-02-25T10:34:09.174Z,100.00
2019-02-25T10:37:17.160Z,100.00
2019-02-25T10:40:33.869Z,100.00
2019-02-25T10:43:41.146Z,100.00
2019-02-25T10:46:57.906Z,100.00
2019-02-25T10:50:14.891Z,100.00
2019-02-25T10:53:31.290Z,100.00
2019-02-25T10:56:52.010Z,100.00
2019-02-25T11:00:00.320Z,96.29
2019-02-25T11:03:19.520Z,89.81
2019-02-25T11:06:37.618Z,93.78
2019-02-25T11:09:53.555Z,89.41
2019-02-25T11:13:02.101Z,93.92
2019-02-25T11:16:11.441Z,89.20
2019-02-25T11:19:18.709Z,91.10
2019-02-25T11:22:25.912Z,82.49
2019-02-25T11:25:33.295Z,90.34
2019-02-25T11:28:41.237Z,84.23
2019-02-25T11:31:51.425Z,79.76
2019-02-25T11:34:58.276Z,77.06
2019-02-25T11:38:05.632Z,76.57
2019-02-25T11:41:12.768Z,81.10
2019-02-25T11:44:21.249Z,76.18
2019-02-25T11:47:38.560Z,78.04
2019-02-25T11:50:55.169Z,78.51
2019-02-25T11:54:11.883Z,80.06
2019-02-25T11:57:19.077Z,76.78
2019-02-25T12:00:26.388Z,75.02
2019-02-25T12:03:43.123Z,75.97
2019-02-25T12:06:50.339Z,74.85
2019-02-25T12:09:57.564Z,70.88
2019-02-25T12:13:04.775Z,76.01
2019-02-25T12:16:12.013Z,69.49
2019-02-25T12:19:28.765Z,67.77
2019-02-25T12:22:35.987Z,53.96
2019-02-25T12:25:43.548Z,52.48
2019-02-25T12:28:59.894Z,53.75
2019-02-25T12:32:07.136Z,56.90
2019-02-25T12:35:23.677Z,44.78
2019-02-25T12:38:30.915Z,43.77
2019-02-25T12:41:38.056Z,46.21
2019-02-25T12:44:45.197Z,42.74
2019-02-25T12:47:52.433Z,41.26
2019-02-25T12:50:59.654Z,41.29
2019-02-25T12:54:07.130Z,40.57
2019-02-25T12:57:23.674Z,45.57
2019-02-25T13:00:30.811Z,44.68
2019-02-25T13:03:37.557Z,41.15
2019-02-25T13:06:44.806Z,36.71
2019-02-25T13:09:52.040Z,37.69
2019-02-25T13:12:59.212Z,47.45
2019-02-25T13:16:06.445Z,42.46
2019-02-25T13:19:13.695Z,43.32
2019-02-25T13:22:20.824Z,42.73
2019-02-25T13:25:27.086Z,46.71
2019-02-25T13:28:43.634Z,49.36
2019-02-25T13:31:50.844Z,48.99
2019-02-25T13:34:58.102Z,48.99
2019-02-25T13:38:14.802Z,50.82
2019-02-25T13:41:21.935Z,52.99
2019-02-25T13:44:29.287Z,51.85
2019-02-25T13:47:36.508Z,47.18
2019-02-25T13:50:53.227Z,50.42
2019-02-25T13:54:00.616Z,51.57
2019-02-25T13:57:17.194Z,47.29
2019-02-25T14:00:24.458Z,47.29
2019-02-25T14:03:31.795Z,44.68
2019-02-25T14:06:48.462Z,45.20
2019-02-25T14:10:07.926Z,46.54
2019-02-25T14:13:15.044Z,48.36
2019-02-25T14:16:22.177Z,42.60
2019-02-25T14:19:29.328Z,46.55
2019-02-25T14:22:36.461Z,42.25
2019-02-25T14:25:43.744Z,44.94
2019-02-25T14:28:50.972Z,52.71
2019-02-25T14:31:58.489Z,41.92
2019-02-25T14:35:07.900Z,41.56
2019-02-25T14:38:25.221Z,42.87
2019-02-25T14:41:42.969Z,42.95
2019-02-25T14:44:52.158Z,43.57
2019-02-25T14:48:10.538Z,47.83
2019-02-25T14:51:27.111Z,42.10
2019-02-25T14:54:34.391Z,39.12
2019-02-25T14:57:51.077Z,39.58
2019-02-25T15:01:07.939Z,40.41
2019-02-25T15:04:24.670Z,41.75
2019-02-25T15:07:42.899Z,46.92
2019-02-25T15:11:02.095Z,46.13
2019-02-25T15:14:10.459Z,41.55
2019-02-25T15:17:17.199Z,40.57
2019-02-25T15:20:26.140Z,45.88
2019-02-25T15:23:33.341Z,41.55
2019-02-25T15:26:43.178Z,48.85
2019-02-25T15:29:49.431Z,42.00
2019-02-25T15:32:58.744Z,40.84
2019-02-25T15:36:05.704Z,42.40
2019-02-25T15:39:23.508Z,41.05
2019-02-25T15:42:32.347Z,43.12
2019-02-25T15:45:49.517Z,49.88
2019-02-25T15:48:56.654Z,49.88
2019-02-25T15:52:04.949Z,45.90
2019-02-25T15:55:14.969Z,45.45
2019-02-25T15:58:31.121Z,46.65
2019-02-25T16:01:38.334Z,46.89
2019-02-25T16:04:45.472Z,46.96
2019-02-25T16:07:53.909Z,52.43
2019-02-25T16:11:02.483Z,53.45
2019-02-25T16:14:09.865Z,50.63
2019-02-25T16:17:17.391Z,52.32
2019-02-25T16:20:24.988Z,55.28
2019-02-25T16:23:43.090Z,56.52
2019-02-25T16:27:00.508Z,61.61
2019-02-25T16:30:10.280Z,57.30
2019-02-25T16:33:17.421Z,59.71
2019-02-25T16:36:26.213Z,59.20
2019-02-25T16:39:33.662Z,59.17
2019-02-25T16:42:50.278Z,59.58
2019-02-25T16:46:08.823Z,59.31
2019-02-25T16:49:26.940Z,60.21
2019-02-25T16:52:45.562Z,63.15
2019-02-25T16:56:02.982Z,65.00
2019-02-25T16:59:22.531Z,62.02
2019-02-25T17:02:40.500Z,66.03
2019-02-25T17:05:57.239Z,67.16
2019-02-25T17:09:05.893Z,68.49
2019-02-25T17:12:13.031Z,63.88
2019-02-25T17:15:20.321Z,64.68
2019-02-25T17:18:30.880Z,64.80
2019-02-25T17:21:36.542Z,68.95
2019-02-25T17:24:43.874Z,71.20
2019-02-25T17:28:00.619Z,74.04
2019-02-25T17:31:18.694Z,76.14
2019-02-25T17:34:26.153Z,78.80
2019-02-25T17:37:43.018Z,78.68
2019-02-25T17:41:06.284Z,81.15
2019-02-25T17:44:27.872Z,73.35
2019-02-25T17:47:34.949Z,80.43
2019-02-25T17:50:52.971Z,81.79
2019-02-25T17:54:10.295Z,83.32
2019-02-25T17:57:18.364Z,79.71
2019-02-25T18:00:35.028Z,75.38
2019-02-25T18:03:43.920Z,75.58
2019-02-25T18:06:51.132Z,81.87
2019-02-25T18:09:58.963Z,81.77
2019-02-25T18:13:17.263Z,78.24
2019-02-25T18:16:24.861Z,81.28
2019-02-25T18:19:32.096Z,82.69
2019-02-25T18:22:39.301Z,84.91
2019-02-25T18:25:46.611Z,85.93
2019-02-25T18:28:54.101Z,91.78
2019-02-25T18:32:02.190Z,91.67
2019-02-25T18:35:22.372Z,90.26
2019-02-25T18:38:30.090Z,89.99
2019-02-25T18:41:38.609Z,90.98
2019-02-25T18:44:46.997Z,91.80
2019-02-25T18:47:54.828Z,92.14
2019-02-25T18:51:03.310Z,95.82
2019-02-25T18:54:11.004Z,97.96
2019-02-25T18:57:18.852Z,95.74
2019-02-25T19:00:31.533Z,97.85
2019-02-25T19:03:38.770Z,97.33
2019-02-25T19:06:47.744Z,89.47
2019-02-25T19:09:56.061Z,93.79
2019-02-25T19:13:03.982Z,100.00
2019-02-25T19:16:11.195Z,91.75
2019-02-25T19:19:19.252Z,98.22
2019-02-25T19:22:27.919Z,93.48
2019-02-25T19:25:35.346Z,93.42
2019-02-25T19:28:44.042Z,93.86
2019-02-25T19:31:50.165Z,95.90
2019-02-25T19:34:58.652Z,98.55
2019-02-25T19:38:17.811Z,98.65
2019-02-25T19:41:34.547Z,100.00
2019-02-25T19:44:51.101Z,99.94
2019-02-25T19:48:07.932Z,100.00
2019-02-25T19:51:15.182Z,96.91
2019-02-25T19:54:34.104Z,99.68
2019-02-25T19:57:52.853Z,100.00
2019-02-25T20:01:01.153Z,100.00
2019-02-25T20:04:18.820Z,100.00
2019-02-25T20:07:28.368Z,100.00
2019-02-25T20:10:35.473Z,100.00
2019-02-25T20:13:43.096Z,100.00
2019-02-25T20:17:00.075Z,100.00
2019-02-25T20:20:22.920Z,100.00
2019-02-25T20:23:39.454Z,100.00
2019-02-25T20:26:48.800Z,100.00
2019-02-25T20:30:07.135Z,100.00
2019-02-25T20:33:29.803Z,100.00
2019-02-25T20:36:41.793Z,100.00
2019-02-25T20:39:49.022Z,100.00
2019-02-25T20:43:05.895Z,100.00
2019-02-25T20:46:13.113Z,100.00
2019-02-25T20:49:35.831Z,100.00
2019-02-25T20:52:44.579Z,100.00
2019-02-25T20:55:52.466Z,100.00
2019-02-25T20:59:10.126Z,100.00
2019-02-25T21:02:18.751Z,100.00
2019-02-25T21:05:35.689Z,100.00
2019-02-25T21:08:44.570Z,100.00
2019-02-25T21:12:01.392Z,100.00
2019-02-25T21:15:25.169Z,100.00
2019-02-25T21:18:32.588Z,100.00
2019-02-25T21:21:39.786Z,100.00
2019-02-25T21:24:46.996Z,100.00
2019-02-25T21:27:57.108Z,100.00
2019-02-25T21:31:16.147Z,100.00
2019-02-25T21:34:24.380Z,100.00
2019-02-25T21:37:43.362Z,100.00
2019-02-25T21:40:50.587Z,100.00
2019-02-25T21:43:59.197Z,100.00
2019-02-25T21:47:06.575Z,100.00
2019-02-25T21:50:26.320Z,100.00
2019-02-25T21:53:41.614Z,100.00
2019-02-25T21:56:48.751Z,100.00
2019-02-25T21:59:58.241Z,100.00
2019-02-25T22:03:08.261Z,100.00
2019-02-25T22:06:18.051Z,100.00
2019-02-25T22:09:35.985Z,100.00
2019-02-25T22:12:33.143Z,100.00
2019-02-25T22:15:42.892Z,100.00
2019-02-25T22:18:51.987Z,100.00
2019-02-25T22:22:00.435Z,100.00
2019-02-25T22:25:11.233Z,100.00
2019-02-25T22:28:18.301Z,100.00
2019-02-25T22:31:25.439Z,100.00
2019-02-25T22:34:32.861Z,100.00
2019-02-25T22:37:38.864Z,100.00
2019-02-25T22:40:46.110Z,100.00
2019-02-25T22:44:04.097Z,100.00
2019-02-25T22:47:11.627Z,100.00
2019-02-25T22:50:19.266Z,100.00
2019-02-25T22:53:26.480Z,100.00
2019-02-25T22:56:34.072Z,100.00
2019-02-25T22:59:41.462Z,100.00
2019-02-25T23:02:49.871Z,100.00
2019-02-25T23:05:56.085Z,100.00
2019-02-25T23:09:03.422Z,100.00
2019-02-25T23:12:21.777Z,100.00
2019-02-25T23:15:38.370Z,100.00
2019-02-25T23:18:55.098Z,100.00
2019-02-25T23:22:02.266Z,100.00
2019-02-25T23:25:09.527Z,100.00
2019-02-25T23:28:18.395Z,100.00
2019-02-25T23:31:24.096Z,100.00
2019-02-25T23:34:42.599Z,100.00
2019-02-25T23:38:00.863Z,100.00
2019-02-25T23:41:09.893Z,100.00
2019-02-25T23:44:26.170Z,100.00
2019-02-25T23:47:35.259Z,100.00
2019-02-25T23:50:42.242Z,100.00
2019-02-25T23:53:58.982Z,100.00
2019-02-25T23:57:06.276Z,100.00
